sensor_id;sensor_type;location;lat;lon;timestamp;pressure;altitude;pressure_sealevel;temperature;humidity
73600;BME280;61877;48.246;9.220;2023-01-13T00:00:34;93929.44;;;6.94;75.81
73600;BME280;61877;48.246;9.220;2023-01-13T00:03:00;93931.31;;;6.93;75.61
73600;BME280;61877;48.246;9.220;2023-01-13T00:05:25;93922.22;;;6.94;75.71
73600;BME280;61877;48.246;9.220;2023-01-13T00:07:51;93930.72;;;6.88;75.81
73600;BME280;61877;48.246;9.220;2023-01-13T00:10:16;93928.38;;;6.86;76.25
73600;BME280;61877;48.246;9.220;2023-01-13T00:12:43;93920.97;;;6.83;76.45
73600;BME280;61877;48.246;9.220;2023-01-13T00:15:10;93924.13;;;6.85;75.83
73600;BME280;61877;48.246;9.220;2023-01-13T00:17:35;93916.44;;;6.84;76.24
73600;BME280;61877;48.246;9.220;2023-01-13T00:20:01;93922.09;;;6.82;76.34
73600;BME280;61877;48.246;9.220;2023-01-13T00:22:27;93921.75;;;6.92;75.42
73600;BME280;61877;48.246;9.220;2023-01-13T00:24:52;93915.63;;;7.00;74.87
73600;BME280;61877;48.246;9.220;2023-01-13T00:27:18;93917.53;;;6.91;75.74
73600;BME280;61877;48.246;9.220;2023-01-13T00:29:44;93921.94;;;6.87;75.95
73600;BME280;61877;48.246;9.220;2023-01-13T00:32:10;93916.13;;;6.85;75.72
73600;BME280;61877;48.246;9.220;2023-01-13T00:34:35;93907.38;;;6.85;75.92
73600;BME280;61877;48.246;9.220;2023-01-13T00:37:01;93890.09;;;6.82;75.75
73600;BME280;61877;48.246;9.220;2023-01-13T00:39:26;93899.69;;;6.75;75.95
73600;BME280;61877;48.246;9.220;2023-01-13T00:41:51;93899.69;;;6.75;75.21
73600;BME280;61877;48.246;9.220;2023-01-13T00:44:17;93897.97;;;6.70;75.85
73600;BME280;61877;48.246;9.220;2023-01-13T00:46:44;93891.56;;;6.71;75.38
73600;BME280;61877;48.246;9.220;2023-01-13T00:49:09;93896.56;;;6.73;75.55
73600;BME280;61877;48.246;9.220;2023-01-13T00:51:35;93895.78;;;6.64;76.24
73600;BME280;61877;48.246;9.220;2023-01-13T00:54:03;93905.53;;;6.60;76.45
73600;BME280;61877;48.246;9.220;2023-01-13T00:56:29;93904.75;;;6.50;76.61
73600;BME280;61877;48.246;9.220;2023-01-13T00:58:54;93899.75;;;6.40;77.76
73600;BME280;61877;48.246;9.220;2023-01-13T01:01:21;93896.47;;;6.35;77.15
73600;BME280;61877;48.246;9.220;2023-01-13T01:03:48;93890.03;;;6.44;76.50
73600;BME280;61877;48.246;9.220;2023-01-13T01:06:16;93894.56;;;6.35;77.24
73600;BME280;61877;48.246;9.220;2023-01-13T01:08:42;93887.38;;;6.27;77.80
73600;BME280;61877;48.246;9.220;2023-01-13T01:11:11;93877.84;;;6.26;77.26
73600;BME280;61877;48.246;9.220;2023-01-13T01:13:37;93882.22;;;6.22;77.27
73600;BME280;61877;48.246;9.220;2023-01-13T01:16:03;93873.44;;;6.22;77.28
73600;BME280;61877;48.246;9.220;2023-01-13T01:18:29;93881.41;;;6.22;77.25
73600;BME280;61877;48.246;9.220;2023-01-13T01:20:59;93885.66;;;6.14;77.36
73600;BME280;61877;48.246;9.220;2023-01-13T01:23:26;93883.00;;;6.14;77.30
73600;BME280;61877;48.246;9.220;2023-01-13T01:25:52;93885.03;;;6.17;77.80
73600;BME280;61877;48.246;9.220;2023-01-13T01:28:17;93885.50;;;6.11;78.06
73600;BME280;61877;48.246;9.220;2023-01-13T01:30:43;93877.84;;;6.09;78.30
73600;BME280;61877;48.246;9.220;2023-01-13T01:33:08;93887.22;;;6.15;77.70
73600;BME280;61877;48.246;9.220;2023-01-13T01:35:37;93885.34;;;6.07;77.98
73600;BME280;61877;48.246;9.220;2023-01-13T01:38:04;93884.56;;;6.07;78.89
73600;BME280;61877;48.246;9.220;2023-01-13T01:40:30;93891.63;;;6.03;78.88
73600;BME280;61877;48.246;9.220;2023-01-13T01:42:55;93897.91;;;5.98;78.63
73600;BME280;61877;48.246;9.220;2023-01-13T01:45:23;93897.44;;;6.05;78.00
73600;BME280;61877;48.246;9.220;2023-01-13T01:47:53;93898.50;;;6.04;78.30
73600;BME280;61877;48.246;9.220;2023-01-13T01:50:20;93887.41;;;6.02;78.23
73600;BME280;61877;48.246;9.220;2023-01-13T01:52:49;93883.47;;;5.99;77.86
73600;BME280;61877;48.246;9.220;2023-01-13T01:55:20;93887.69;;;6.00;78.15
73600;BME280;61877;48.246;9.220;2023-01-13T01:57:50;93872.97;;;5.94;77.96
73600;BME280;61877;48.246;9.220;2023-01-13T02:00:17;93876.28;;;5.91;78.50
73600;BME280;61877;48.246;9.220;2023-01-13T02:02:45;93868.28;;;5.91;77.63
73600;BME280;61877;48.246;9.220;2023-01-13T02:05:11;93875.94;;;5.84;78.21
73600;BME280;61877;48.246;9.220;2023-01-13T02:07:39;93867.34;;;5.87;78.20
73600;BME280;61877;48.246;9.220;2023-01-13T02:10:07;93860.28;;;5.83;78.43
73600;BME280;61877;48.246;9.220;2023-01-13T02:12:35;93867.00;;;5.80;77.54
73600;BME280;61877;48.246;9.220;2023-01-13T02:15:04;93858.22;;;5.80;78.09
73600;BME280;61877;48.246;9.220;2023-01-13T02:20:41;93861.19;;;5.70;77.85
73600;BME280;61877;48.246;9.220;2023-01-13T02:23:34;93847.44;;;5.76;77.52
73600;BME280;61877;48.246;9.220;2023-01-13T02:26:24;93849.59;;;5.74;77.34
73600;BME280;61877;48.246;9.220;2023-01-13T02:29:08;93856.81;;;5.74;78.27
73600;BME280;61877;48.246;9.220;2023-01-13T02:31:39;93850.88;;;5.68;78.08
73600;BME280;61877;48.246;9.220;2023-01-13T02:34:09;93842.88;;;5.68;78.57
73600;BME280;61877;48.246;9.220;2023-01-13T02:36:40;93843.97;;;5.67;78.39
73600;BME280;61877;48.246;9.220;2023-01-13T02:39:14;93837.09;;;5.75;77.37
73600;BME280;61877;48.246;9.220;2023-01-13T02:41:45;93841.31;;;5.76;78.38
73600;BME280;61877;48.246;9.220;2023-01-13T02:44:15;93832.09;;;5.73;78.03
73600;BME280;61877;48.246;9.220;2023-01-13T02:46:52;93833.00;;;5.77;77.45
73600;BME280;61877;48.246;9.220;2023-01-13T02:49:26;93833.97;;;5.73;77.41
73600;BME280;61877;48.246;9.220;2023-01-13T02:51:59;93830.50;;;5.72;78.48
73600;BME280;61877;48.246;9.220;2023-01-13T02:54:28;93830.97;;;5.74;78.69
73600;BME280;61877;48.246;9.220;2023-01-13T02:56:56;93826.75;;;5.73;78.36
73600;BME280;61877;48.246;9.220;2023-01-13T02:59:23;93832.56;;;5.75;78.16
73600;BME280;61877;48.246;9.220;2023-01-13T03:01:53;93834.75;;;5.82;78.61
73600;BME280;61877;48.246;9.220;2023-01-13T03:04:44;93832.56;;;5.75;79.23
73600;BME280;61877;48.246;9.220;2023-01-13T03:07:12;93830.50;;;5.72;79.37
73600;BME280;61877;48.246;9.220;2023-01-13T03:09:53;93825.19;;;5.72;81.33
73600;BME280;61877;48.246;9.220;2023-01-13T03:12:25;93839.75;;;5.66;80.91
73600;BME280;61877;48.246;9.220;2023-01-13T03:14:56;93824.88;;;5.65;80.96
73600;BME280;61877;48.246;9.220;2023-01-13T03:17:32;93825.06;;;5.69;80.63
73600;BME280;61877;48.246;9.220;2023-01-13T03:20:04;93822.69;;;5.67;80.72
73600;BME280;61877;48.246;9.220;2023-01-13T03:22:36;93820.00;;;5.67;80.86
73600;BME280;61877;48.246;9.220;2023-01-13T03:25:09;93825.22;;;5.64;82.07
73600;BME280;61877;48.246;9.220;2023-01-13T03:27:45;93815.31;;;5.64;81.54
73600;BME280;61877;48.246;9.220;2023-01-13T03:32:43;93813.28;;;5.61;82.09
73600;BME280;61877;48.246;9.220;2023-01-13T03:35:13;93812.19;;;5.62;81.62
73600;BME280;61877;48.246;9.220;2023-01-13T03:37:44;93801.53;;;5.62;81.00
73600;BME280;61877;48.246;9.220;2023-01-13T03:40:13;93802.00;;;5.64;81.94
73600;BME280;61877;48.246;9.220;2023-01-13T03:42:43;93793.13;;;5.69;81.30
73600;BME280;61877;48.246;9.220;2023-01-13T03:45:13;93791.22;;;5.69;82.17
73600;BME280;61877;48.246;9.220;2023-01-13T03:47:43;93791.84;;;5.75;80.34
73600;BME280;61877;48.246;9.220;2023-01-13T03:50:14;93785.13;;;5.69;81.35
73600;BME280;61877;48.246;9.220;2023-01-13T03:52:45;93785.91;;;5.69;81.18
73600;BME280;61877;48.246;9.220;2023-01-13T03:55:14;93781.03;;;5.71;81.52
73600;BME280;61877;48.246;9.220;2023-01-13T03:57:45;93779.94;;;5.72;81.29
73600;BME280;61877;48.246;9.220;2023-01-13T04:00:13;93774.13;;;5.79;81.21
73600;BME280;61877;48.246;9.220;2023-01-13T04:02:47;93779.19;;;5.72;81.69
73600;BME280;61877;48.246;9.220;2023-01-13T04:05:14;93782.91;;;5.79;80.82
73600;BME280;61877;48.246;9.220;2023-01-13T04:07:46;93783.72;;;5.88;80.57
73600;BME280;61877;48.246;9.220;2023-01-13T04:10:16;93782.63;;;5.89;80.87
73600;BME280;61877;48.246;9.220;2023-01-13T04:12:45;93777.63;;;5.88;81.17
73600;BME280;61877;48.246;9.220;2023-01-13T04:15:13;93779.16;;;5.97;80.79
73600;BME280;61877;48.246;9.220;2023-01-13T04:17:39;93782.16;;;5.96;81.04
73600;BME280;61877;48.246;9.220;2023-01-13T04:20:06;93778.53;;;6.00;81.23
73600;BME280;61877;48.246;9.220;2023-01-13T04:22:32;93776.50;;;6.06;81.53
73600;BME280;61877;48.246;9.220;2023-01-13T04:24:57;93773.19;;;6.17;80.96
73600;BME280;61877;48.246;9.220;2023-01-13T04:27:23;93771.28;;;6.26;80.09
73600;BME280;61877;48.246;9.220;2023-01-13T04:29:48;93763.16;;;6.23;80.70
73600;BME280;61877;48.246;9.220;2023-01-13T04:32:14;93761.41;;;6.27;80.40
73600;BME280;61877;48.246;9.220;2023-01-13T04:34:39;93761.69;;;6.34;80.64
73600;BME280;61877;48.246;9.220;2023-01-13T04:37:06;93761.06;;;6.37;80.90
73600;BME280;61877;48.246;9.220;2023-01-13T04:39:31;93771.38;;;6.38;80.89
73600;BME280;61877;48.246;9.220;2023-01-13T04:41:57;93760.72;;;6.47;80.34
73600;BME280;61877;48.246;9.220;2023-01-13T04:44:22;93763.53;;;6.42;80.93
73600;BME280;61877;48.246;9.220;2023-01-13T04:46:47;93771.50;;;6.50;80.28
73600;BME280;61877;48.246;9.220;2023-01-13T04:49:13;93777.00;;;6.54;80.56
73600;BME280;61877;48.246;9.220;2023-01-13T04:51:38;93763.50;;;6.59;79.80
73600;BME280;61877;48.246;9.220;2023-01-13T04:54:05;93768.97;;;6.63;79.71
73600;BME280;61877;48.246;9.220;2023-01-13T04:56:31;93769.13;;;6.66;79.39
73600;BME280;61877;48.246;9.220;2023-01-13T04:58:56;93770.06;;;6.62;80.08
73600;BME280;61877;48.246;9.220;2023-01-13T05:01:21;93776.16;;;6.62;79.78
73600;BME280;61877;48.246;9.220;2023-01-13T05:03:47;93763.78;;;6.66;79.78
73600;BME280;61877;48.246;9.220;2023-01-13T05:06:12;93762.84;;;6.62;80.53
73600;BME280;61877;48.246;9.220;2023-01-13T05:08:38;93773.50;;;6.62;80.10
73600;BME280;61877;48.246;9.220;2023-01-13T05:11:05;93759.72;;;6.60;80.59
73600;BME280;61877;48.246;9.220;2023-01-13T05:13:30;93762.25;;;6.57;80.91
73600;BME280;61877;48.246;9.220;2023-01-13T05:15:56;93762.34;;;6.69;80.70
73600;BME280;61877;48.246;9.220;2023-01-13T05:18:24;93757.94;;;6.73;80.06
73600;BME280;61877;48.246;9.220;2023-01-13T05:20:51;93753.34;;;6.82;79.50
73600;BME280;61877;48.246;9.220;2023-01-13T05:23:19;93754.16;;;6.74;80.25
73600;BME280;61877;48.246;9.220;2023-01-13T05:25:46;93748.50;;;6.75;80.24
73600;BME280;61877;48.246;9.220;2023-01-13T05:28:14;93744.00;;;6.67;80.98
73600;BME280;61877;48.246;9.220;2023-01-13T05:30:41;93739.47;;;6.68;81.03
73600;BME280;61877;48.246;9.220;2023-01-13T05:33:07;93735.84;;;6.72;81.06
73600;BME280;61877;48.246;9.220;2023-01-13T05:35:32;93728.34;;;6.66;81.12
73600;BME280;61877;48.246;9.220;2023-01-13T05:37:58;93742.44;;;6.75;81.13
73600;BME280;61877;48.246;9.220;2023-01-13T05:40:23;93741.34;;;6.67;81.33
73600;BME280;61877;48.246;9.220;2023-01-13T05:42:59;93740.09;;;6.73;81.50
73600;BME280;61877;48.246;9.220;2023-01-13T05:45:26;93743.31;;;6.79;81.21
73600;BME280;61877;48.246;9.220;2023-01-13T05:47:51;93740.28;;;6.89;80.50
73600;BME280;61877;48.246;9.220;2023-01-13T05:50:17;93740.53;;;6.75;81.37
73600;BME280;61877;48.246;9.220;2023-01-13T05:52:42;93734.44;;;6.75;81.92
73600;BME280;61877;48.246;9.220;2023-01-13T05:55:09;93743.31;;;6.79;81.39
73600;BME280;61877;48.246;9.220;2023-01-13T05:57:34;93738.94;;;6.83;80.72
73600;BME280;61877;48.246;9.220;2023-01-13T06:00:00;93737.16;;;6.87;80.84
73600;BME280;61877;48.246;9.220;2023-01-13T06:02:27;93754.94;;;6.83;81.26
73600;BME280;61877;48.246;9.220;2023-01-13T06:04:52;93744.84;;;6.88;80.83
73600;BME280;61877;48.246;9.220;2023-01-13T06:07:18;93748.16;;;6.85;81.03
73600;BME280;61877;48.246;9.220;2023-01-13T06:09:43;93754.28;;;6.86;81.20
73600;BME280;61877;48.246;9.220;2023-01-13T06:12:09;93747.22;;;6.90;80.98
73600;BME280;61877;48.246;9.220;2023-01-13T06:14:35;93743.28;;;6.87;81.30
73600;BME280;61877;48.246;9.220;2023-01-13T06:17:00;93747.81;;;6.87;81.31
73600;BME280;61877;48.246;9.220;2023-01-13T06:19:27;93761.34;;;6.82;81.52
73600;BME280;61877;48.246;9.220;2023-01-13T06:21:55;93742.56;;;6.78;81.94
73600;BME280;61877;48.246;9.220;2023-01-13T06:24:21;93743.03;;;6.72;82.46
73600;BME280;61877;48.246;9.220;2023-01-13T06:26:47;93735.03;;;6.72;82.61
73600;BME280;61877;48.246;9.220;2023-01-13T06:29:12;93741.31;;;6.76;82.50
73600;BME280;61877;48.246;9.220;2023-01-13T06:31:38;93744.31;;;6.74;82.37
73600;BME280;61877;48.246;9.220;2023-01-13T06:34:06;93735.19;;;6.75;82.14
73600;BME280;61877;48.246;9.220;2023-01-13T06:36:37;93740.56;;;6.67;82.97
73600;BME280;61877;48.246;9.220;2023-01-13T06:39:04;93742.31;;;6.63;82.84
73600;BME280;61877;48.246;9.220;2023-01-13T06:41:32;93743.38;;;6.70;82.87
73600;BME280;61877;48.246;9.220;2023-01-13T06:43:57;93746.81;;;6.71;83.08
73600;BME280;61877;48.246;9.220;2023-01-13T06:46:24;93753.22;;;6.78;82.22
73600;BME280;61877;48.246;9.220;2023-01-13T06:48:49;93752.13;;;6.79;82.20
73600;BME280;61877;48.246;9.220;2023-01-13T06:51:15;93755.09;;;6.78;82.57
73600;BME280;61877;48.246;9.220;2023-01-13T06:53:41;93751.50;;;6.74;83.00
73600;BME280;61877;48.246;9.220;2023-01-13T06:56:07;93752.63;;;6.73;82.54
73600;BME280;61877;48.246;9.220;2023-01-13T06:58:32;93751.81;;;6.72;83.35
73600;BME280;61877;48.246;9.220;2023-01-13T07:00:59;93752.34;;;6.66;83.38
73600;BME280;61877;48.246;9.220;2023-01-13T07:03:24;93750.00;;;6.64;83.59
73600;BME280;61877;48.246;9.220;2023-01-13T07:05:51;93752.34;;;6.66;83.73
73600;BME280;61877;48.246;9.220;2023-01-13T07:08:16;93750.16;;;6.59;84.02
73600;BME280;61877;48.246;9.220;2023-01-13T07:10:43;93744.66;;;6.64;83.85
73600;BME280;61877;48.246;9.220;2023-01-13T07:13:08;93748.94;;;6.57;84.56
73600;BME280;61877;48.246;9.220;2023-01-13T07:15:34;93745.81;;;6.54;84.36
73600;BME280;61877;48.246;9.220;2023-01-13T07:18:00;93755.50;;;6.59;84.08
73600;BME280;61877;48.246;9.220;2023-01-13T07:20:26;93749.19;;;6.64;84.56
73600;BME280;61877;48.246;9.220;2023-01-13T07:22:52;93749.84;;;6.61;84.53
73600;BME280;61877;48.246;9.220;2023-01-13T07:25:18;93745.44;;;6.65;83.92
73600;BME280;61877;48.246;9.220;2023-01-13T07:27:44;93751.72;;;6.60;84.40
73600;BME280;61877;48.246;9.220;2023-01-13T07:30:11;93742.13;;;6.68;84.22
73600;BME280;61877;48.246;9.220;2023-01-13T07:32:37;93747.66;;;6.63;84.42
73600;BME280;61877;48.246;9.220;2023-01-13T07:35:02;93748.44;;;6.63;84.62
73600;BME280;61877;48.246;9.220;2023-01-13T07:37:28;93752.81;;;6.68;84.45
73600;BME280;61877;48.246;9.220;2023-01-13T07:39:53;93757.66;;;6.66;84.51
73600;BME280;61877;48.246;9.220;2023-01-13T07:42:19;93754.50;;;6.72;84.34
73600;BME280;61877;48.246;9.220;2023-01-13T07:44:46;93758.13;;;6.68;84.83
73600;BME280;61877;48.246;9.220;2023-01-13T07:47:11;93750.75;;;6.73;84.43
73600;BME280;61877;48.246;9.220;2023-01-13T07:49:36;93755.19;;;6.61;85.01
73600;BME280;61877;48.246;9.220;2023-01-13T07:52:02;93753.69;;;6.72;84.64
73600;BME280;61877;48.246;9.220;2023-01-13T07:54:27;93749.03;;;6.69;84.91
73600;BME280;61877;48.246;9.220;2023-01-13T07:56:54;93761.25;;;6.70;84.88
73600;BME280;61877;48.246;9.220;2023-01-13T07:59:20;93776.94;;;6.71;84.70
73600;BME280;61877;48.246;9.220;2023-01-13T08:01:47;93774.59;;;6.70;85.29
73600;BME280;61877;48.246;9.220;2023-01-13T08:04:12;93769.88;;;6.67;85.58
73600;BME280;61877;48.246;9.220;2023-01-13T08:06:38;93775.31;;;6.79;84.61
73600;BME280;61877;48.246;9.220;2023-01-13T08:09:04;93759.94;;;6.84;85.01
73600;BME280;61877;48.246;9.220;2023-01-13T08:11:29;93758.25;;;6.80;85.15
73600;BME280;61877;48.246;9.220;2023-01-13T08:13:55;93776.44;;;6.78;85.06
73600;BME280;61877;48.246;9.220;2023-01-13T08:16:22;93775.34;;;6.70;85.24
73600;BME280;61877;48.246;9.220;2023-01-13T08:18:49;93771.75;;;6.75;84.68
73600;BME280;61877;48.246;9.220;2023-01-13T08:21:15;93778.44;;;6.81;84.54
73600;BME280;61877;48.246;9.220;2023-01-13T08:23:41;93785.81;;;6.84;84.43
73600;BME280;61877;48.246;9.220;2023-01-13T08:26:09;93786.75;;;6.88;84.75
73600;BME280;61877;48.246;9.220;2023-01-13T08:28:35;93784.22;;;6.91;84.39
73600;BME280;61877;48.246;9.220;2023-01-13T08:31:04;93783.13;;;6.84;84.99
73600;BME280;61877;48.246;9.220;2023-01-13T08:33:30;93770.75;;;6.88;84.62
73600;BME280;61877;48.246;9.220;2023-01-13T08:35:57;93765.09;;;6.89;84.33
73600;BME280;61877;48.246;9.220;2023-01-13T08:38:26;93778.81;;;7.00;84.35
73600;BME280;61877;48.246;9.220;2023-01-13T08:40:51;93788.34;;;7.09;84.38
73600;BME280;61877;48.246;9.220;2023-01-13T08:43:17;93777.63;;;7.18;84.45
73600;BME280;61877;48.246;9.220;2023-01-13T08:45:42;93793.66;;;7.38;83.97
73600;BME280;61877;48.246;9.220;2023-01-13T08:48:08;93790.09;;;7.55;82.96
73600;BME280;61877;48.246;9.220;2023-01-13T08:50:33;93795.78;;;7.74;83.41
73600;BME280;61877;48.246;9.220;2023-01-13T08:53:00;93802.13;;;8.02;82.08
73600;BME280;61877;48.246;9.220;2023-01-13T08:55:25;93799.59;;;8.06;82.40
73600;BME280;61877;48.246;9.220;2023-01-13T08:57:51;93804.31;;;7.67;83.44
73600;BME280;61877;48.246;9.220;2023-01-13T09:00:17;93797.31;;;7.75;84.01
73600;BME280;61877;48.246;9.220;2023-01-13T09:02:52;93801.03;;;7.62;84.51
73600;BME280;61877;48.246;9.220;2023-01-13T09:05:17;93804.56;;;7.54;85.69
73600;BME280;61877;48.246;9.220;2023-01-13T09:07:43;93807.78;;;7.39;86.81
73600;BME280;61877;48.246;9.220;2023-01-13T09:10:10;93813.03;;;7.27;87.61
73600;BME280;61877;48.246;9.220;2023-01-13T09:12:35;93809.31;;;7.19;87.36
73600;BME280;61877;48.246;9.220;2023-01-13T09:15:02;93827.75;;;7.04;88.80
73600;BME280;61877;48.246;9.220;2023-01-13T09:17:28;93826.97;;;7.03;88.32
73600;BME280;61877;48.246;9.220;2023-01-13T09:19:53;93823.72;;;6.98;90.08
73600;BME280;61877;48.246;9.220;2023-01-13T09:22:33;93824.16;;;7.00;89.76
73600;BME280;61877;48.246;9.220;2023-01-13T09:25:02;93815.06;;;7.01;89.22
73600;BME280;61877;48.246;9.220;2023-01-13T09:27:28;93813.25;;;7.13;89.42
73600;BME280;61877;48.246;9.220;2023-01-13T09:29:54;93811.53;;;7.38;88.07
73600;BME280;61877;48.246;9.220;2023-01-13T09:32:19;93822.16;;;7.26;87.31
73600;BME280;61877;48.246;9.220;2023-01-13T09:34:45;93825.25;;;7.57;86.74
73600;BME280;61877;48.246;9.220;2023-01-13T09:37:10;93822.91;;;7.55;87.21
73600;BME280;61877;48.246;9.220;2023-01-13T09:39:36;93827.06;;;7.65;86.67
73600;BME280;61877;48.246;9.220;2023-01-13T09:42:05;93832.22;;;7.49;87.02
73600;BME280;61877;48.246;9.220;2023-01-13T09:44:43;93831.06;;;7.59;87.08
73600;BME280;61877;48.246;9.220;2023-01-13T09:47:17;93832.53;;;7.48;87.94
73600;BME280;61877;48.246;9.220;2023-01-13T09:49:46;93834.84;;;7.29;87.79
73600;BME280;61877;48.246;9.220;2023-01-13T09:52:14;93834.66;;;7.34;87.27
73600;BME280;61877;48.246;9.220;2023-01-13T09:54:41;93834.72;;;7.25;88.41
73600;BME280;61877;48.246;9.220;2023-01-13T09:57:09;93833.16;;;7.45;88.08
73600;BME280;61877;48.246;9.220;2023-01-13T09:59:37;93839.56;;;7.52;88.68
73600;BME280;61877;48.246;9.220;2023-01-13T10:02:18;93839.44;;;7.49;88.19
73600;BME280;61877;48.246;9.220;2023-01-13T10:05:01;93825.69;;;7.38;88.08
73600;BME280;61877;48.246;9.220;2023-01-13T10:07:28;93832.72;;;7.43;88.78
73600;BME280;61877;48.246;9.220;2023-01-13T10:09:57;93823.16;;;7.42;88.67
73600;BME280;61877;48.246;9.220;2023-01-13T10:12:25;93831.63;;;7.64;88.76
73600;BME280;61877;48.246;9.220;2023-01-13T10:14:57;93835.34;;;7.72;88.43
73600;BME280;61877;48.246;9.220;2023-01-13T10:17:27;93837.16;;;7.59;87.69
73600;BME280;61877;48.246;9.220;2023-01-13T10:19:58;93840.25;;;7.91;86.93
73600;BME280;61877;48.246;9.220;2023-01-13T10:22:41;93842.06;;;7.78;88.17
73600;BME280;61877;48.246;9.220;2023-01-13T10:25:20;93845.41;;;7.96;87.51
73600;BME280;61877;48.246;9.220;2023-01-13T10:27:49;93839.53;;;8.02;87.08
73600;BME280;61877;48.246;9.220;2023-01-13T10:30:20;93845.84;;;7.98;87.07
73600;BME280;61877;48.246;9.220;2023-01-13T10:32:51;93848.63;;;8.01;86.99
73600;BME280;61877;48.246;9.220;2023-01-13T10:35:17;93840.97;;;7.79;86.87
73600;BME280;61877;48.246;9.220;2023-01-13T10:37:55;93851.16;;;7.56;88.36
73600;BME280;61877;48.246;9.220;2023-01-13T10:40:21;93835.94;;;7.57;88.44
73600;BME280;61877;48.246;9.220;2023-01-13T10:42:46;93846.06;;;7.43;89.37
73600;BME280;61877;48.246;9.220;2023-01-13T10:45:24;93824.97;;;7.29;90.97
73600;BME280;61877;48.246;9.220;2023-01-13T10:48:04;93831.19;;;7.33;90.04
73600;BME280;61877;48.246;9.220;2023-01-13T10:50:34;93831.91;;;7.51;89.79
73600;BME280;61877;48.246;9.220;2023-01-13T10:53:02;93836.59;;;7.74;89.06
73600;BME280;61877;48.246;9.220;2023-01-13T10:55:30;93828.28;;;8.50;86.11
73600;BME280;61877;48.246;9.220;2023-01-13T10:57:55;93825.03;;;9.13;84.92
73600;BME280;61877;48.246;9.220;2023-01-13T11:00:30;93827.59;;;9.09;82.73
73600;BME280;61877;48.246;9.220;2023-01-13T11:03:11;93820.56;;;9.29;82.79
73600;BME280;61877;48.246;9.220;2023-01-13T11:05:40;93814.44;;;9.04;82.15
73600;BME280;61877;48.246;9.220;2023-01-13T11:08:15;93823.34;;;8.84;81.83
73600;BME280;61877;48.246;9.220;2023-01-13T11:10:48;93814.78;;;9.03;80.72
73600;BME280;61877;48.246;9.220;2023-01-13T11:13:16;93811.69;;;9.77;76.09
73600;BME280;61877;48.246;9.220;2023-01-13T11:15:52;93818.66;;;9.54;75.14
73600;BME280;61877;48.246;9.220;2023-01-13T11:18:25;93820.00;;;8.99;76.95
73600;BME280;61877;48.246;9.220;2023-01-13T11:20:53;93828.94;;;9.15;76.28
73600;BME280;61877;48.246;9.220;2023-01-13T11:23:22;93823.69;;;9.07;75.58
73600;BME280;61877;48.246;9.220;2023-01-13T11:25:52;93821.38;;;9.30;74.93
73600;BME280;61877;48.246;9.220;2023-01-13T11:28:32;93801.84;;;10.76;72.65
73600;BME280;61877;48.246;9.220;2023-01-13T11:31:07;93813.19;;;11.31;70.35
73600;BME280;61877;48.246;9.220;2023-01-13T11:33:39;93809.34;;;12.74;63.42
73600;BME280;61877;48.246;9.220;2023-01-13T11:36:10;93800.38;;;12.89;61.42
73600;BME280;61877;48.246;9.220;2023-01-13T11:38:42;93803.06;;;12.29;62.93
73600;BME280;61877;48.246;9.220;2023-01-13T11:41:15;93815.75;;;13.08;58.92
73600;BME280;61877;48.246;9.220;2023-01-13T11:43:50;93830.81;;;12.33;60.98
73600;BME280;61877;48.246;9.220;2023-01-13T11:46:18;93839.00;;;11.51;64.38
73600;BME280;61877;48.246;9.220;2023-01-13T11:48:48;93835.81;;;11.30;65.50
73600;BME280;61877;48.246;9.220;2023-01-13T11:51:21;93834.75;;;10.88;67.34
73600;BME280;61877;48.246;9.220;2023-01-13T11:54:03;93833.50;;;10.15;67.86
73600;BME280;61877;48.246;9.220;2023-01-13T11:56:44;93836.44;;;10.10;68.94
73600;BME280;61877;48.246;9.220;2023-01-13T11:59:57;93841.88;;;9.50;68.21
73600;BME280;61877;48.246;9.220;2023-01-13T12:02:42;93855.25;;;9.38;69.01
73600;BME280;61877;48.246;9.220;2023-01-13T12:05:15;93850.34;;;9.03;69.08
73600;BME280;61877;48.246;9.220;2023-01-13T12:07:49;93880.41;;;9.00;70.74
73600;BME280;61877;48.246;9.220;2023-01-13T12:10:29;93922.09;;;7.66;73.77
73600;BME280;61877;48.246;9.220;2023-01-13T12:13:02;93958.31;;;5.89;78.06
73600;BME280;61877;48.246;9.220;2023-01-13T12:15:46;93974.13;;;5.38;83.56
73600;BME280;61877;48.246;9.220;2023-01-13T12:18:39;93984.94;;;4.80;82.94
73600;BME280;61877;48.246;9.220;2023-01-13T12:21:17;93983.84;;;4.59;85.18
73600;BME280;61877;48.246;9.220;2023-01-13T12:23:49;93986.47;;;4.51;84.52
73600;BME280;61877;48.246;9.220;2023-01-13T12:26:16;93986.47;;;4.51;82.28
73600;BME280;61877;48.246;9.220;2023-01-13T12:28:45;93986.31;;;4.34;83.51
73600;BME280;61877;48.246;9.220;2023-01-13T12:31:13;93986.06;;;4.22;82.95
73600;BME280;61877;48.246;9.220;2023-01-13T12:33:50;93981.94;;;4.16;85.69
73600;BME280;61877;48.246;9.220;2023-01-13T12:36:30;93971.59;;;4.28;83.71
73600;BME280;61877;48.246;9.220;2023-01-13T12:39:11;93985.75;;;4.23;85.17
73600;BME280;61877;48.246;9.220;2023-01-13T12:41:45;93981.53;;;4.22;85.90
73600;BME280;61877;48.246;9.220;2023-01-13T12:44:11;93958.44;;;4.23;85.59
73600;BME280;61877;48.246;9.220;2023-01-13T12:46:44;93956.25;;;4.47;83.98
73600;BME280;61877;48.246;9.220;2023-01-13T12:49:20;93967.00;;;4.64;84.57
73600;BME280;61877;48.246;9.220;2023-01-13T12:55:06;93986.00;;;4.79;84.66
73600;BME280;61877;48.246;9.220;2023-01-13T12:57:33;93968.50;;;4.78;84.83
73600;BME280;61877;48.246;9.220;2023-01-13T13:00:14;93930.41;;;5.22;82.54
73600;BME280;61877;48.246;9.220;2023-01-13T13:02:41;93945.44;;;7.98;76.49
73600;BME280;61877;48.246;9.220;2023-01-13T13:31:51;93928.38;;;7.61;73.01
73600;BME280;61877;48.246;9.220;2023-01-13T13:34:54;93930.72;;;6.88;76.31
73600;BME280;61877;48.246;9.220;2023-01-13T13:38:05;93933.44;;;6.53;77.85
73600;BME280;61877;48.246;9.220;2023-01-13T14:24:36;93986.72;;;6.62;74.72
73600;BME280;61877;48.246;9.220;2023-01-13T14:27:13;93984.69;;;6.68;75.01
73600;BME280;61877;48.246;9.220;2023-01-13T14:29:40;93983.25;;;6.62;77.04
73600;BME280;61877;48.246;9.220;2023-01-13T14:32:06;93983.75;;;6.55;76.48
73600;BME280;61877;48.246;9.220;2023-01-13T14:34:32;93981.88;;;6.47;77.63
73600;BME280;61877;48.246;9.220;2023-01-13T14:36:58;93985.47;;;6.42;79.67
73600;BME280;61877;48.246;9.220;2023-01-13T14:39:31;93996.44;;;6.41;78.12